sensor_id;sensor_type;location;lat;lon;timestamp;P1;durP1;ratioP1;P2;durP2;ratioP2
51491;SDS011;37569;50.548;8.778;2023-02-10T00:03:05;47.6;;;23.7;;
51491;SDS011;37569;50.548;8.778;2023-02-10T00:08:05;44.2;;;23.6;;
51491;SDS011;37569;50.548;8.778;2023-02-10T00:13:05;47.4;;;23.7;;
51491;SDS011;37569;50.548;8.778;2023-02-10T00:18:05;47.7;;;24.8;;
51491;SDS011;37569;50.548;8.778;2023-02-10T00:23:05;42.3;;;23.3;;
51491;SDS011;37569;50.548;8.778;2023-02-10T00:28:05;46.2;;;24.5;;
51491;SDS011;37569;50.548;8.778;2023-02-10T00:33:05;44;;;24.5;;
51491;SDS011;37569;50.548;8.778;2023-02-10T00:38:05;42.3;;;24.2;;
51491;SDS011;37569;50.548;8.778;2023-02-10T00:43:05;44;;;24.1;;
51491;SDS011;37569;50.548;8.778;2023-02-10T00:48:04;45.9;;;24.6;;
51491;SDS011;37569;50.548;8.778;2023-02-10T00:53:04;44.1;;;24.3;;
51491;SDS011;37569;50.548;8.778;2023-02-10T00:58:04;47.3;;;25.3;;
51491;SDS011;37569;50.548;8.778;2023-02-10T01:03:04;44.6;;;24.3;;
51491;SDS011;37569;50.548;8.778;2023-02-10T01:08:04;45.5;;;25.2;;
51491;SDS011;37569;50.548;8.778;2023-02-10T01:13:04;45.5;;;25.4;;
51491;SDS011;37569;50.548;8.778;2023-02-10T01:18:04;45.9;;;25;;
51491;SDS011;37569;50.548;8.778;2023-02-10T01:23:04;48.4;;;25.5;;
51491;SDS011;37569;50.548;8.778;2023-02-10T01:28:04;42;;;24.2;;
51491;SDS011;37569;50.548;8.778;2023-02-10T01:33:04;45.5;;;25.1;;
51491;SDS011;37569;50.548;8.778;2023-02-10T01:38:04;47.3;;;24.3;;
51491;SDS011;37569;50.548;8.778;2023-02-10T01:43:08;43.9;;;23.5;;
51491;SDS011;37569;50.548;8.778;2023-02-10T01:48:04;42.7;;;24.6;;
51491;SDS011;37569;50.548;8.778;2023-02-10T01:53:03;42.1;;;24;;
51491;SDS011;37569;50.548;8.778;2023-02-10T01:58:04;42.5;;;23.9;;
51491;SDS011;37569;50.548;8.778;2023-02-10T02:03:03;43.1;;;23.5;;
51491;SDS011;37569;50.548;8.778;2023-02-10T02:08:04;43.6;;;24.4;;
51491;SDS011;37569;50.548;8.778;2023-02-10T02:13:03;41.2;;;23.2;;
51491;SDS011;37569;50.548;8.778;2023-02-10T02:18:06;43.7;;;23.7;;
51491;SDS011;37569;50.548;8.778;2023-02-10T02:23:06;45.6;;;23.6;;
51491;SDS011;37569;50.548;8.778;2023-02-10T02:28:06;44.8;;;24;;
51491;SDS011;37569;50.548;8.778;2023-02-10T02:33:03;42.1;;;23.9;;
51491;SDS011;37569;50.548;8.778;2023-02-10T02:38:03;41.5;;;23.3;;
51491;SDS011;37569;50.548;8.778;2023-02-10T02:43:03;42.1;;;23.7;;
51491;SDS011;37569;50.548;8.778;2023-02-10T02:48:04;42.2;;;24.2;;
51491;SDS011;37569;50.548;8.778;2023-02-10T02:53:05;39.3;;;23.7;;
51491;SDS011;37569;50.548;8.778;2023-02-10T02:58:04;44.3;;;24.2;;
51491;SDS011;37569;50.548;8.778;2023-02-10T03:03:03;44.7;;;24.7;;
51491;SDS011;37569;50.548;8.778;2023-02-10T03:08:03;42.4;;;25.1;;
51491;SDS011;37569;50.548;8.778;2023-02-10T03:13:03;44.5;;;25.9;;
51491;SDS011;37569;50.548;8.778;2023-02-10T03:18:03;43.5;;;25.1;;
51491;SDS011;37569;50.548;8.778;2023-02-10T03:23:03;41.9;;;23.2;;
51491;SDS011;37569;50.548;8.778;2023-02-10T03:28:03;45.9;;;25.4;;
51491;SDS011;37569;50.548;8.778;2023-02-10T03:33:02;42.7;;;25.5;;
51491;SDS011;37569;50.548;8.778;2023-02-10T03:38:02;44.9;;;25;;
51491;SDS011;37569;50.548;8.778;2023-02-10T03:43:03;44.4;;;24.6;;
51491;SDS011;37569;50.548;8.778;2023-02-10T03:48:02;42;;;24.2;;
51491;SDS011;37569;50.548;8.778;2023-02-10T03:53:03;42.6;;;23.6;;
51491;SDS011;37569;50.548;8.778;2023-02-10T03:58:02;45;;;25;;
51491;SDS011;37569;50.548;8.778;2023-02-10T04:03:02;46.5;;;25.4;;
51491;SDS011;37569;50.548;8.778;2023-02-10T04:08:02;42.6;;;25.1;;
51491;SDS011;37569;50.548;8.778;2023-02-10T04:13:02;42.8;;;24.8;;
51491;SDS011;37569;50.548;8.778;2023-02-10T04:18:02;45.2;;;25;;
51491;SDS011;37569;50.548;8.778;2023-02-10T04:23:02;43.4;;;25;;
51491;SDS011;37569;50.548;8.778;2023-02-10T04:28:02;46.9;;;25.6;;
51491;SDS011;37569;50.548;8.778;2023-02-10T04:33:02;45.3;;;25.4;;
51491;SDS011;37569;50.548;8.778;2023-02-10T04:38:02;49.5;;;27.1;;
51491;SDS011;37569;50.548;8.778;2023-02-10T04:43:02;47.5;;;25.3;;
51491;SDS011;37569;50.548;8.778;2023-02-10T04:48:02;51.5;;;25.9;;
51491;SDS011;37569;50.548;8.778;2023-02-10T04:53:02;45.2;;;25.7;;
51491;SDS011;37569;50.548;8.778;2023-02-10T04:58:02;43.8;;;25.8;;
51491;SDS011;37569;50.548;8.778;2023-02-10T05:03:02;47.4;;;24.9;;
51491;SDS011;37569;50.548;8.778;2023-02-10T05:08:02;48.4;;;26.4;;
51491;SDS011;37569;50.548;8.778;2023-02-10T05:13:02;48;;;27.7;;
51491;SDS011;37569;50.548;8.778;2023-02-10T05:18:02;46;;;26.3;;
51491;SDS011;37569;50.548;8.778;2023-02-10T05:23:02;49.5;;;26.6;;
51491;SDS011;37569;50.548;8.778;2023-02-10T05:28:02;49.8;;;26.4;;
51491;SDS011;37569;50.548;8.778;2023-02-10T05:33:01;48.3;;;26.3;;
51491;SDS011;37569;50.548;8.778;2023-02-10T05:38:02;47.1;;;26;;
51491;SDS011;37569;50.548;8.778;2023-02-10T05:43:01;45.7;;;25.9;;
51491;SDS011;37569;50.548;8.778;2023-02-10T05:48:01;50.2;;;26.9;;
51491;SDS011;37569;50.548;8.778;2023-02-10T05:53:01;43.8;;;24.8;;
51491;SDS011;37569;50.548;8.778;2023-02-10T05:58:01;45.2;;;26;;
51491;SDS011;37569;50.548;8.778;2023-02-10T06:03:01;47.2;;;25.9;;
51491;SDS011;37569;50.548;8.778;2023-02-10T06:08:01;48.3;;;27.1;;
51491;SDS011;37569;50.548;8.778;2023-02-10T06:13:01;46.3;;;26.5;;
51491;SDS011;37569;50.548;8.778;2023-02-10T06:18:01;46.9;;;26.3;;
51491;SDS011;37569;50.548;8.778;2023-02-10T06:23:01;48.3;;;26.9;;
51491;SDS011;37569;50.548;8.778;2023-02-10T06:28:01;47.2;;;26.7;;
51491;SDS011;37569;50.548;8.778;2023-02-10T06:33:01;49.3;;;27;;
51491;SDS011;37569;50.548;8.778;2023-02-10T06:38:01;47.7;;;27.1;;
51491;SDS011;37569;50.548;8.778;2023-02-10T06:43:01;47.5;;;26.8;;
51491;SDS011;37569;50.548;8.778;2023-02-10T06:48:01;45;;;26.5;;
51491;SDS011;37569;50.548;8.778;2023-02-10T06:53:01;44.8;;;26.3;;
51491;SDS011;37569;50.548;8.778;2023-02-10T06:58:01;47.5;;;27.1;;
51491;SDS011;37569;50.548;8.778;2023-02-10T07:03:01;45.6;;;27;;
51491;SDS011;37569;50.548;8.778;2023-02-10T07:08:01;45.6;;;26.3;;
51491;SDS011;37569;50.548;8.778;2023-02-10T07:13:01;50.6;;;26.7;;
51491;SDS011;37569;50.548;8.778;2023-02-10T07:18:01;48.6;;;25.9;;
51491;SDS011;37569;50.548;8.778;2023-02-10T07:23:01;49.6;;;28.5;;
51491;SDS011;37569;50.548;8.778;2023-02-10T07:28:01;45.6;;;25.7;;
51491;SDS011;37569;50.548;8.778;2023-02-10T07:33:01;50.6;;;27.6;;
51491;SDS011;37569;50.548;8.778;2023-02-10T07:38:01;44.7;;;26.1;;
51491;SDS011;37569;50.548;8.778;2023-02-10T07:43:01;49.8;;;27.5;;
51491;SDS011;37569;50.548;8.778;2023-02-10T07:48:01;46.5;;;28;;
51491;SDS011;37569;50.548;8.778;2023-02-10T07:53:01;58.5;;;32.8;;
51491;SDS011;37569;50.548;8.778;2023-02-10T07:58:01;50.5;;;28.3;;
51491;SDS011;37569;50.548;8.778;2023-02-10T08:03:01;52.8;;;29;;
51491;SDS011;37569;50.548;8.778;2023-02-10T08:08:01;43.7;;;26.3;;
51491;SDS011;37569;50.548;8.778;2023-02-10T08:13:01;44.8;;;25.6;;
51491;SDS011;37569;50.548;8.778;2023-02-10T08:18:01;43.5;;;27.5;;
51491;SDS011;37569;50.548;8.778;2023-02-10T08:23:01;43.1;;;25.8;;
51491;SDS011;37569;50.548;8.778;2023-02-10T08:28:01;40.1;;;24.8;;
51491;SDS011;37569;50.548;8.778;2023-02-10T08:33:01;45;;;25.5;;
51491;SDS011;37569;50.548;8.778;2023-02-10T08:38:01;42.8;;;25.9;;
51491;SDS011;37569;50.548;8.778;2023-02-10T08:43:01;44.3;;;26;;
51491;SDS011;37569;50.548;8.778;2023-02-10T08:48:01;39.7;;;24;;
51491;SDS011;37569;50.548;8.778;2023-02-10T08:53:01;42.8;;;25.4;;
51491;SDS011;37569;50.548;8.778;2023-02-10T08:58:01;45.4;;;26;;
51491;SDS011;37569;50.548;8.778;2023-02-10T09:03:01;46.1;;;26.7;;
51491;SDS011;37569;50.548;8.778;2023-02-10T09:08:01;44.9;;;24.8;;
51491;SDS011;37569;50.548;8.778;2023-02-10T09:13:01;46;;;27.4;;
51491;SDS011;37569;50.548;8.778;2023-02-10T09:18:01;45.6;;;26.8;;
51491;SDS011;37569;50.548;8.778;2023-02-10T09:23:01;43.1;;;27.7;;
51491;SDS011;37569;50.548;8.778;2023-02-10T09:28:01;44.2;;;26.1;;
51491;SDS011;37569;50.548;8.778;2023-02-10T09:33:01;45.8;;;26.2;;
51491;SDS011;37569;50.548;8.778;2023-02-10T09:38:01;43.1;;;26.1;;
51491;SDS011;37569;50.548;8.778;2023-02-10T09:43:04;45;;;27.7;;
51491;SDS011;37569;50.548;8.778;2023-02-10T09:48:04;45.6;;;26.8;;
51491;SDS011;37569;50.548;8.778;2023-02-10T09:53:03;46.4;;;26.3;;
51491;SDS011;37569;50.548;8.778;2023-02-10T09:58:02;46.7;;;26.8;;
51491;SDS011;37569;50.548;8.778;2023-02-10T10:03:03;45.3;;;26.7;;
51491;SDS011;37569;50.548;8.778;2023-02-10T10:08:01;43.9;;;25.6;;
51491;SDS011;37569;50.548;8.778;2023-02-10T10:13:01;45.9;;;27.5;;
51491;SDS011;37569;50.548;8.778;2023-02-10T10:18:02;43.3;;;27.2;;
51491;SDS011;37569;50.548;8.778;2023-02-10T10:23:05;45;;;26.6;;
51491;SDS011;37569;50.548;8.778;2023-02-10T10:28:04;44.5;;;27.2;;
51491;SDS011;37569;50.548;8.778;2023-02-10T10:33:02;42.2;;;26.4;;
51491;SDS011;37569;50.548;8.778;2023-02-10T10:38:07;47.1;;;27.2;;
51491;SDS011;37569;50.548;8.778;2023-02-10T10:43:01;45.8;;;28.2;;
51491;SDS011;37569;50.548;8.778;2023-02-10T10:48:04;40.2;;;25.5;;
51491;SDS011;37569;50.548;8.778;2023-02-10T10:53:03;44.2;;;25.9;;
51491;SDS011;37569;50.548;8.778;2023-02-10T10:58:02;41.9;;;26.2;;
51491;SDS011;37569;50.548;8.778;2023-02-10T11:03:02;44.3;;;27.2;;
51491;SDS011;37569;50.548;8.778;2023-02-10T11:08:02;41.5;;;26.6;;
51491;SDS011;37569;50.548;8.778;2023-02-10T11:13:02;43.1;;;26.4;;
51491;SDS011;37569;50.548;8.778;2023-02-10T11:18:02;42.9;;;27.2;;
51491;SDS011;37569;50.548;8.778;2023-02-10T11:23:03;41.9;;;27.3;;
51491;SDS011;37569;50.548;8.778;2023-02-10T11:28:03;41.8;;;26.6;;
51491;SDS011;37569;50.548;8.778;2023-02-10T11:33:03;42;;;26.3;;
51491;SDS011;37569;50.548;8.778;2023-02-10T11:38:03;44;;;27.7;;
51491;SDS011;37569;50.548;8.778;2023-02-10T11:43:04;42.7;;;26.1;;
51491;SDS011;37569;50.548;8.778;2023-02-10T11:48:04;42.3;;;26.3;;
51491;SDS011;37569;50.548;8.778;2023-02-10T11:53:03;41.3;;;26.2;;
51491;SDS011;37569;50.548;8.778;2023-02-10T11:58:10;44.9;;;27.8;;
51491;SDS011;37569;50.548;8.778;2023-02-10T12:03:13;43.4;;;26.9;;
51491;SDS011;37569;50.548;8.778;2023-02-10T12:08:06;44.2;;;27.1;;
51491;SDS011;37569;50.548;8.778;2023-02-10T12:13:05;39.3;;;25.9;;
51491;SDS011;37569;50.548;8.778;2023-02-10T12:18:09;42.1;;;27.4;;
51491;SDS011;37569;50.548;8.778;2023-02-10T12:23:08;42.3;;;26.9;;
51491;SDS011;37569;50.548;8.778;2023-02-10T12:28:05;41.1;;;26.2;;
51491;SDS011;37569;50.548;8.778;2023-02-10T12:33:09;41.5;;;26.7;;
51491;SDS011;37569;50.548;8.778;2023-02-10T12:38:08;42.9;;;26.5;;
51491;SDS011;37569;50.548;8.778;2023-02-10T12:43:07;42.8;;;27.6;;
51491;SDS011;37569;50.548;8.778;2023-02-10T12:48:06;41.2;;;26.3;;
51491;SDS011;37569;50.548;8.778;2023-02-10T12:53:05;41.9;;;27.1;;
51491;SDS011;37569;50.548;8.778;2023-02-10T12:58:08;43.4;;;26.9;;
51491;SDS011;37569;50.548;8.778;2023-02-10T13:03:06;44.4;;;27.9;;
51491;SDS011;37569;50.548;8.778;2023-02-10T13:08:05;42.1;;;26.9;;
51491;SDS011;37569;50.548;8.778;2023-02-10T13:13:06;45;;;29;;
51491;SDS011;37569;50.548;8.778;2023-02-10T13:18:10;45.5;;;29.3;;
51491;SDS011;37569;50.548;8.778;2023-02-10T13:23:09;45.9;;;29.7;;
51491;SDS011;37569;50.548;8.778;2023-02-10T13:28:11;42.5;;;28.1;;
51491;SDS011;37569;50.548;8.778;2023-02-10T13:33:09;45.8;;;29.2;;
51491;SDS011;37569;50.548;8.778;2023-02-10T13:38:06;47.2;;;30.1;;
51491;SDS011;37569;50.548;8.778;2023-02-10T13:43:06;51.4;;;30.3;;
51491;SDS011;37569;50.548;8.778;2023-02-10T13:48:15;45.4;;;29.1;;
51491;SDS011;37569;50.548;8.778;2023-02-10T13:53:25;44.2;;;29.3;;
51491;SDS011;37569;50.548;8.778;2023-02-10T13:58:47;43.6;;;27.7;;
51491;SDS011;37569;50.548;8.778;2023-02-10T14:03:18;46.2;;;28.9;;
51491;SDS011;37569;50.548;8.778;2023-02-10T14:08:14;43.8;;;28.5;;
51491;SDS011;37569;50.548;8.778;2023-02-10T14:13:19;43.6;;;28.5;;
51491;SDS011;37569;50.548;8.778;2023-02-10T14:18:20;43.9;;;28.2;;
51491;SDS011;37569;50.548;8.778;2023-02-10T14:23:07;44.4;;;28.8;;
51491;SDS011;37569;50.548;8.778;2023-02-10T14:28:20;42.9;;;28.4;;
51491;SDS011;37569;50.548;8.778;2023-02-10T14:33:16;44.3;;;27.9;;
51491;SDS011;37569;50.548;8.778;2023-02-10T14:38:16;40.1;;;26.2;;
51491;SDS011;37569;50.548;8.778;2023-02-10T14:43:21;40.5;;;25.4;;
51491;SDS011;37569;50.548;8.778;2023-02-10T14:48:08;42.2;;;25.8;;
51491;SDS011;37569;50.548;8.778;2023-02-10T14:53:14;38.5;;;25.5;;
51491;SDS011;37569;50.548;8.778;2023-02-10T14:58:09;40.4;;;25.5;;
51491;SDS011;37569;50.548;8.778;2023-02-10T15:03:09;40;;;26;;
51491;SDS011;37569;50.548;8.778;2023-02-10T15:08:09;40.8;;;25.6;;
51491;SDS011;37569;50.548;8.778;2023-02-10T15:13:09;40.9;;;25.3;;
51491;SDS011;37569;50.548;8.778;2023-02-10T15:18:11;38.1;;;24.1;;
51491;SDS011;37569;50.548;8.778;2023-02-10T15:23:11;36.5;;;24.4;;
51491;SDS011;37569;50.548;8.778;2023-02-10T15:28:18;38.7;;;24.6;;
51491;SDS011;37569;50.548;8.778;2023-02-10T15:33:14;36.2;;;23.5;;
51491;SDS011;37569;50.548;8.778;2023-02-10T15:38:10;36.7;;;23.6;;
51491;SDS011;37569;50.548;8.778;2023-02-10T15:43:21;36.5;;;22.9;;
51491;SDS011;37569;50.548;8.778;2023-02-10T15:48:14;38;;;23.2;;
51491;SDS011;37569;50.548;8.778;2023-02-10T15:53:11;38.1;;;23.2;;
51491;SDS011;37569;50.548;8.778;2023-02-10T15:58:11;36.7;;;23.8;;
51491;SDS011;37569;50.548;8.778;2023-02-10T16:03:11;46.7;;;29.6;;
51491;SDS011;37569;50.548;8.778;2023-02-10T16:08:15;37.5;;;25.3;;
51491;SDS011;37569;50.548;8.778;2023-02-10T16:13:15;37.1;;;24;;
51491;SDS011;37569;50.548;8.778;2023-02-10T16:18:11;35.8;;;24.4;;
51491;SDS011;37569;50.548;8.778;2023-02-10T16:23:12;38.7;;;25.5;;
51491;SDS011;37569;50.548;8.778;2023-02-10T16:28:12;39.4;;;24.5;;
51491;SDS011;37569;50.548;8.778;2023-02-10T16:33:12;40.2;;;25.9;;
51491;SDS011;37569;50.548;8.778;2023-02-10T16:38:12;38.6;;;25.6;;
51491;SDS011;37569;50.548;8.778;2023-02-10T16:43:12;38.5;;;25.6;;
51491;SDS011;37569;50.548;8.778;2023-02-10T16:48:12;40.5;;;26.7;;
51491;SDS011;37569;50.548;8.778;2023-02-10T16:53:12;47.4;;;27.4;;
51491;SDS011;37569;50.548;8.778;2023-02-10T16:58:13;43.2;;;27.6;;
51491;SDS011;37569;50.548;8.778;2023-02-10T17:03:12;43.5;;;27.9;;
51491;SDS011;37569;50.548;8.778;2023-02-10T17:08:12;42.4;;;26.1;;
51491;SDS011;37569;50.548;8.778;2023-02-10T17:13:13;43.2;;;27.7;;
51491;SDS011;37569;50.548;8.778;2023-02-10T17:18:13;48.3;;;28.9;;
51491;SDS011;37569;50.548;8.778;2023-02-10T17:23:13;44.5;;;28.5;;
51491;SDS011;37569;50.548;8.778;2023-02-10T17:28:13;45.8;;;29.9;;
51491;SDS011;37569;50.548;8.778;2023-02-10T17:33:19;46.5;;;28.6;;
51491;SDS011;37569;50.548;8.778;2023-02-10T17:38:13;48.7;;;28.9;;
51491;SDS011;37569;50.548;8.778;2023-02-10T17:43:13;47.8;;;29.4;;
51491;SDS011;37569;50.548;8.778;2023-02-10T17:48:13;46.3;;;28.8;;
51491;SDS011;37569;50.548;8.778;2023-02-10T17:53:13;49.1;;;28.3;;
51491;SDS011;37569;50.548;8.778;2023-02-10T17:58:13;45.1;;;28.6;;
51491;SDS011;37569;50.548;8.778;2023-02-10T18:03:14;49;;;29.9;;
51491;SDS011;37569;50.548;8.778;2023-02-10T18:08:14;45.8;;;28.8;;
51491;SDS011;37569;50.548;8.778;2023-02-10T18:13:14;44.9;;;28.7;;
51491;SDS011;37569;50.548;8.778;2023-02-10T18:18:14;46.3;;;29.6;;
51491;SDS011;37569;50.548;8.778;2023-02-10T18:23:14;47.9;;;30.5;;
51491;SDS011;37569;50.548;8.778;2023-02-10T18:28:14;49.4;;;30.3;;
51491;SDS011;37569;50.548;8.778;2023-02-10T18:33:14;48.1;;;29.9;;
51491;SDS011;37569;50.548;8.778;2023-02-10T18:38:14;50.3;;;30;;
51491;SDS011;37569;50.548;8.778;2023-02-10T18:43:14;47.2;;;29.9;;
51491;SDS011;37569;50.548;8.778;2023-02-10T18:48:14;44;;;29.2;;
51491;SDS011;37569;50.548;8.778;2023-02-10T18:53:14;46.4;;;29.8;;
51491;SDS011;37569;50.548;8.778;2023-02-10T18:58:14;44.7;;;28.8;;
51491;SDS011;37569;50.548;8.778;2023-02-10T19:03:14;46.7;;;30.3;;
51491;SDS011;37569;50.548;8.778;2023-02-10T19:08:14;47.5;;;29.9;;
51491;SDS011;37569;50.548;8.778;2023-02-10T19:13:14;49.7;;;30.8;;
51491;SDS011;37569;50.548;8.778;2023-02-10T19:18:15;48.3;;;30;;
51491;SDS011;37569;50.548;8.778;2023-02-10T19:23:15;50.6;;;29.7;;
51491;SDS011;37569;50.548;8.778;2023-02-10T19:28:15;48.7;;;30.6;;
51491;SDS011;37569;50.548;8.778;2023-02-10T19:33:15;48.7;;;29.4;;
51491;SDS011;37569;50.548;8.778;2023-02-10T19:38:15;56.8;;;35.6;;
51491;SDS011;37569;50.548;8.778;2023-02-10T19:43:15;52.6;;;32.5;;
51491;SDS011;37569;50.548;8.778;2023-02-10T19:48:15;48.6;;;30.8;;
51491;SDS011;37569;50.548;8.778;2023-02-10T19:53:15;51.6;;;30;;
51491;SDS011;37569;50.548;8.778;2023-02-10T19:58:15;49.5;;;29.4;;
51491;SDS011;37569;50.548;8.778;2023-02-10T20:03:15;47.4;;;28.4;;
51491;SDS011;37569;50.548;8.778;2023-02-10T20:08:15;45.1;;;28.9;;
51491;SDS011;37569;50.548;8.778;2023-02-10T20:13:15;44.2;;;27.5;;
51491;SDS011;37569;50.548;8.778;2023-02-10T20:18:15;44.7;;;27.4;;
51491;SDS011;37569;50.548;8.778;2023-02-10T20:23:15;44.9;;;27.7;;
51491;SDS011;37569;50.548;8.778;2023-02-10T20:28:15;46.6;;;28.3;;
51491;SDS011;37569;50.548;8.778;2023-02-10T20:33:15;42.6;;;26.6;;
51491;SDS011;37569;50.548;8.778;2023-02-10T20:38:15;43.4;;;25.7;;
51491;SDS011;37569;50.548;8.778;2023-02-10T20:43:15;42.3;;;25.3;;
51491;SDS011;37569;50.548;8.778;2023-02-10T20:48:15;48.1;;;26.8;;
51491;SDS011;37569;50.548;8.778;2023-02-10T20:53:16;48.1;;;30.9;;
51491;SDS011;37569;50.548;8.778;2023-02-10T20:58:16;41.8;;;26.2;;
51491;SDS011;37569;50.548;8.778;2023-02-10T21:03:16;46;;;25.9;;
51491;SDS011;37569;50.548;8.778;2023-02-10T21:08:16;44.7;;;26.1;;
51491;SDS011;37569;50.548;8.778;2023-02-10T21:13:16;46.1;;;26.8;;
51491;SDS011;37569;50.548;8.778;2023-02-10T21:18:16;47.7;;;28.4;;
51491;SDS011;37569;50.548;8.778;2023-02-10T21:23:16;63;;;37.1;;
51491;SDS011;37569;50.548;8.778;2023-02-10T21:28:16;53.7;;;31.6;;
51491;SDS011;37569;50.548;8.778;2023-02-10T21:33:16;49.6;;;29.4;;
51491;SDS011;37569;50.548;8.778;2023-02-10T21:38:16;51.4;;;31.1;;
51491;SDS011;37569;50.548;8.778;2023-02-10T21:43:16;51.6;;;31.1;;
51491;SDS011;37569;50.548;8.778;2023-02-10T21:48:16;53.3;;;31.7;;
51491;SDS011;37569;50.548;8.778;2023-02-10T21:53:16;51.8;;;31.3;;
51491;SDS011;37569;50.548;8.778;2023-02-10T21:58:16;58.7;;;34.4;;
51491;SDS011;37569;50.548;8.778;2023-02-10T22:03:16;54.4;;;33;;
51491;SDS011;37569;50.548;8.778;2023-02-10T22:08:16;53.1;;;33.5;;
51491;SDS011;37569;50.548;8.778;2023-02-10T22:13:16;56.8;;;32.4;;
51491;SDS011;37569;50.548;8.778;2023-02-10T22:18:16;53.6;;;31;;
51491;SDS011;37569;50.548;8.778;2023-02-10T22:23:16;51.1;;;31.2;;
51491;SDS011;37569;50.548;8.778;2023-02-10T22:28:16;52.4;;;32.1;;
51491;SDS011;37569;50.548;8.778;2023-02-10T22:33:16;53.6;;;32.3;;
51491;SDS011;37569;50.548;8.778;2023-02-10T22:38:17;55.5;;;32.1;;
51491;SDS011;37569;50.548;8.778;2023-02-10T22:43:16;57;;;33.4;;
51491;SDS011;37569;50.548;8.778;2023-02-10T22:48:16;60.6;;;36.5;;
51491;SDS011;37569;50.548;8.778;2023-02-10T22:53:17;56.7;;;34.6;;
51491;SDS011;37569;50.548;8.778;2023-02-10T22:58:16;54.7;;;33.4;;
51491;SDS011;37569;50.548;8.778;2023-02-10T23:03:16;58.5;;;33.6;;
51491;SDS011;37569;50.548;8.778;2023-02-10T23:08:16;52;;;32.9;;
51491;SDS011;37569;50.548;8.778;2023-02-10T23:13:17;54.8;;;32.9;;
51491;SDS011;37569;50.548;8.778;2023-02-10T23:18:17;51.1;;;31.7;;
51491;SDS011;37569;50.548;8.778;2023-02-10T23:23:17;54.6;;;32.4;;
51491;SDS011;37569;50.548;8.778;2023-02-10T23:28:17;56.6;;;32.7;;
51491;SDS011;37569;50.548;8.778;2023-02-10T23:33:17;52.8;;;32.7;;
51491;SDS011;37569;50.548;8.778;2023-02-10T23:38:18;57.8;;;33.5;;
51491;SDS011;37569;50.548;8.778;2023-02-10T23:43:17;55.8;;;33.3;;
51491;SDS011;37569;50.548;8.778;2023-02-10T23:48:17;56.2;;;33.6;;
51491;SDS011;37569;50.548;8.778;2023-02-10T23:53:17;56.8;;;34.1;;
51491;SDS011;37569;50.548;8.778;2023-02-10T23:58:17;53.8;;;32.7;;
